<?xml version="1.0" encoding="UTF-8" standalone="no" ?>
<gpx xmlns="http://www.topografix.com/GPX/1/1" xmlns:xsi="http://www.w3.org/2001/XMLSchema-instance" xsi:schemaLocation="http://www.topografix.com/GPX/1/1 http://www.topografix.com/GPX/1/1/gpx.xsd" version="1.1" creator="VisuGPX - https://www.visugpx.com">
  <metadata>
    <name>Yerres Crosnes Villeneuve St Georges</name>
    <desc><![CDATA[Yerres Crosnes Villeneuve et St Georges
Dist 13 km
Dev 150m]]></desc>
  </metadata>
  <wpt lat="48.7317" lon="2.47974">
    <ele>87</ele>
  </wpt>
  <trk>
    <name><![CDATA[Yerres Crosnes Villeneuve St Georges_1]]></name>
    <extensions>
      <line xmlns="http://www.topografix.com/GPX/gpx_style/0/2">
        <color>0000FF</color>
        <width>4</width>
      </line>
    </extensions>
    <trkseg>
      <trkpt lat="48.72292" lon="2.49969">
        <ele>94</ele>
        <time>2021-11-02T10:13:30+01:00</time>
      </trkpt>
      <trkpt lat="48.72292" lon="2.49969">
        <ele>94</ele>
        <time>2021-11-02T10:13:30+01:00</time>
      </trkpt>
      <trkpt lat="48.72294" lon="2.49918">
        <ele>92</ele>
        <time>2021-11-02T10:13:35+01:00</time>
      </trkpt>
      <trkpt lat="48.72254" lon="2.49845">
        <ele>90</ele>
        <time>2021-11-02T10:13:40+01:00</time>
      </trkpt>
      <trkpt lat="48.72211" lon="2.49817">
        <ele>90</ele>
        <time>2021-11-02T10:13:45+01:00</time>
      </trkpt>
      <trkpt lat="48.72204" lon="2.49591">
        <ele>89</ele>
        <time>2021-11-02T10:13:50+01:00</time>
      </trkpt>
      <trkpt lat="48.72174" lon="2.49549">
        <ele>91</ele>
        <time>2021-11-02T10:13:55+01:00</time>
      </trkpt>
      <trkpt lat="48.72141" lon="2.49524">
        <ele>92</ele>
        <time>2021-11-02T10:14:00+01:00</time>
      </trkpt>
      <trkpt lat="48.72142" lon="2.4949">
        <ele>89.9</ele>
        <time>2021-11-02T10:14:05+01:00</time>
      </trkpt>
      <trkpt lat="48.7215" lon="2.49442">
        <ele>90</ele>
        <time>2021-11-02T10:14:10+01:00</time>
      </trkpt>
      <trkpt lat="48.72168" lon="2.49393">
        <ele>89.9</ele>
        <time>2021-11-02T10:14:15+01:00</time>
      </trkpt>
      <trkpt lat="48.72169" lon="2.49341">
        <ele>89.9</ele>
        <time>2021-11-02T10:14:20+01:00</time>
      </trkpt>
      <trkpt lat="48.72168" lon="2.49294">
        <ele>89.9</ele>
        <time>2021-11-02T10:14:25+01:00</time>
      </trkpt>
      <trkpt lat="48.72171" lon="2.49221">
        <ele>89</ele>
        <time>2021-11-02T10:14:30+01:00</time>
      </trkpt>
      <trkpt lat="48.72175" lon="2.49175">
        <ele>88.8</ele>
        <time>2021-11-02T10:14:35+01:00</time>
      </trkpt>
      <trkpt lat="48.72176" lon="2.49118">
        <ele>88.2</ele>
      </trkpt>
      <trkpt lat="48.72175" lon="2.49097">
        <ele>88</ele>
        <time>2021-11-02T10:14:40+01:00</time>
      </trkpt>
      <trkpt lat="48.72164" lon="2.49062">
        <ele>95</ele>
        <time>2021-11-02T10:14:45+01:00</time>
      </trkpt>
      <trkpt lat="48.72179" lon="2.49015">
        <ele>95</ele>
        <time>2021-11-02T10:14:50+01:00</time>
      </trkpt>
      <trkpt lat="48.72208" lon="2.48944">
        <ele>95</ele>
        <time>2021-11-02T10:14:55+01:00</time>
      </trkpt>
      <trkpt lat="48.72211" lon="2.48847">
        <ele>92.9</ele>
        <time>2021-11-02T10:15:00+01:00</time>
      </trkpt>
      <trkpt lat="48.72133" lon="2.48822">
        <ele>92</ele>
        <time>2021-11-02T10:15:05+01:00</time>
      </trkpt>
      <trkpt lat="48.72088" lon="2.48802">
        <ele>96</ele>
        <time>2021-11-02T10:15:10+01:00</time>
      </trkpt>
      <trkpt lat="48.72047" lon="2.48787">
        <ele>84.4</ele>
      </trkpt>
      <trkpt lat="48.7205" lon="2.48767">
        <ele>94</ele>
        <time>2021-11-02T10:15:15+01:00</time>
      </trkpt>
      <trkpt lat="48.72038" lon="2.48599">
        <ele>102</ele>
        <time>2021-11-02T10:15:20+01:00</time>
      </trkpt>
      <trkpt lat="48.72024" lon="2.48459">
        <ele>96.9</ele>
        <time>2021-11-02T10:15:25+01:00</time>
      </trkpt>
      <trkpt lat="48.72047" lon="2.48344">
        <ele>99.8</ele>
      </trkpt>
      <trkpt lat="48.72044" lon="2.48297">
        <ele>94.8</ele>
        <time>2021-11-02T10:15:30+01:00</time>
      </trkpt>
      <trkpt lat="48.72042" lon="2.48221">
        <ele>99.7</ele>
        <time>2021-11-02T10:15:35+01:00</time>
      </trkpt>
      <trkpt lat="48.72071" lon="2.48123">
        <ele>114</ele>
        <time>2021-11-02T10:15:40+01:00</time>
      </trkpt>
      <trkpt lat="48.72153" lon="2.48153">
        <ele>117.7</ele>
        <time>2021-11-02T10:15:45+01:00</time>
      </trkpt>
      <trkpt lat="48.72213" lon="2.48168">
        <ele>117</ele>
        <time>2021-11-02T10:15:50+01:00</time>
      </trkpt>
      <trkpt lat="48.72214" lon="2.47978">
        <ele>105.2</ele>
        <time>2021-11-02T10:15:55+01:00</time>
      </trkpt>
      <trkpt lat="48.72089" lon="2.47823">
        <ele>98.6</ele>
        <time>2021-11-02T10:16:00+01:00</time>
      </trkpt>
      <trkpt lat="48.72022" lon="2.4776">
        <ele>95.1</ele>
        <time>2021-11-02T10:16:05+01:00</time>
      </trkpt>
      <trkpt lat="48.71966" lon="2.4776">
        <ele>93.8</ele>
      </trkpt>
      <trkpt lat="48.71918" lon="2.47787">
        <ele>91.7</ele>
        <time>2021-11-02T10:16:10+01:00</time>
      </trkpt>
      <trkpt lat="48.71934" lon="2.47703">
        <ele>93</ele>
        <time>2021-11-02T10:16:15+01:00</time>
      </trkpt>
      <trkpt lat="48.71958" lon="2.47625">
        <ele>92</ele>
        <time>2021-11-02T10:16:20+01:00</time>
      </trkpt>
      <trkpt lat="48.71955" lon="2.4759">
        <ele>90</ele>
        <time>2021-11-02T10:16:25+01:00</time>
      </trkpt>
      <trkpt lat="48.71957" lon="2.47548">
        <ele>89</ele>
        <time>2021-11-02T10:16:30+01:00</time>
      </trkpt>
      <trkpt lat="48.71987" lon="2.47406">
        <ele>88</ele>
        <time>2021-11-02T10:16:35+01:00</time>
      </trkpt>
      <trkpt lat="48.71934" lon="2.47384">
        <ele>85</ele>
        <time>2021-11-02T10:16:40+01:00</time>
      </trkpt>
      <trkpt lat="48.71905" lon="2.47345">
        <ele>85</ele>
        <time>2021-11-02T10:16:45+01:00</time>
      </trkpt>
      <trkpt lat="48.71896" lon="2.47318">
        <ele>85</ele>
        <time>2021-11-02T10:16:50+01:00</time>
      </trkpt>
      <trkpt lat="48.71882" lon="2.47468">
        <ele>86</ele>
        <time>2021-11-02T10:16:55+01:00</time>
      </trkpt>
      <trkpt lat="48.71865" lon="2.47468">
        <ele>86</ele>
        <time>2021-11-02T10:17:00+01:00</time>
      </trkpt>
      <trkpt lat="48.71843" lon="2.47541">
        <ele>87</ele>
        <time>2021-11-02T10:17:05+01:00</time>
      </trkpt>
      <trkpt lat="48.71779" lon="2.47519">
        <ele>82</ele>
        <time>2021-11-02T10:17:10+01:00</time>
      </trkpt>
      <trkpt lat="48.71753" lon="2.47531">
        <ele>79</ele>
        <time>2021-11-02T10:17:15+01:00</time>
      </trkpt>
      <trkpt lat="48.71712" lon="2.47561">
        <ele>71</ele>
        <time>2021-11-02T10:17:20+01:00</time>
      </trkpt>
      <trkpt lat="48.71689" lon="2.47576">
        <ele>65.4</ele>
        <time>2021-11-02T10:17:25+01:00</time>
      </trkpt>
      <trkpt lat="48.71667" lon="2.47591">
        <ele>60.8</ele>
        <time>2021-11-02T10:17:30+01:00</time>
      </trkpt>
      <trkpt lat="48.71714" lon="2.47816">
        <ele>57.7</ele>
        <time>2021-11-02T10:17:35+01:00</time>
      </trkpt>
      <trkpt lat="48.71576" lon="2.47851">
        <ele>36.9</ele>
        <time>2021-11-02T10:17:40+01:00</time>
      </trkpt>
      <trkpt lat="48.71509" lon="2.47862">
        <ele>37.6</ele>
        <time>2021-11-02T10:17:45+01:00</time>
      </trkpt>
      <trkpt lat="48.71489" lon="2.47778">
        <ele>36.1</ele>
        <time>2021-11-02T10:17:50+01:00</time>
      </trkpt>
      <trkpt lat="48.71489" lon="2.47656">
        <ele>36</ele>
      </trkpt>
      <trkpt lat="48.71477" lon="2.47587">
        <ele>37</ele>
        <time>2021-11-02T10:17:55+01:00</time>
      </trkpt>
      <trkpt lat="48.71431" lon="2.4746">
        <ele>37</ele>
        <time>2021-11-02T10:18:00+01:00</time>
      </trkpt>
      <trkpt lat="48.71349" lon="2.47366">
        <ele>34.9</ele>
        <time>2021-11-02T10:18:05+01:00</time>
      </trkpt>
      <trkpt lat="48.71341" lon="2.47317">
        <ele>35</ele>
      </trkpt>
      <trkpt lat="48.71343" lon="2.47276">
        <ele>37</ele>
        <time>2021-11-02T10:18:10+01:00</time>
      </trkpt>
      <trkpt lat="48.71294" lon="2.47176">
        <ele>35</ele>
        <time>2021-11-02T10:18:15+01:00</time>
      </trkpt>
      <trkpt lat="48.71282" lon="2.4711">
        <ele>34.9</ele>
      </trkpt>
      <trkpt lat="48.71259" lon="2.47044">
        <ele>34.9</ele>
        <time>2021-11-02T10:18:20+01:00</time>
      </trkpt>
      <trkpt lat="48.71235" lon="2.46977">
        <ele>34.6</ele>
        <time>2021-11-02T10:18:25+01:00</time>
      </trkpt>
      <trkpt lat="48.7119" lon="2.46913">
        <ele>35.5</ele>
        <time>2021-11-02T10:18:30+01:00</time>
      </trkpt>
      <trkpt lat="48.71198" lon="2.46884">
        <ele>35</ele>
        <time>2021-11-02T10:18:35+01:00</time>
      </trkpt>
      <trkpt lat="48.7119" lon="2.46854">
        <ele>35</ele>
        <time>2021-11-02T10:18:40+01:00</time>
      </trkpt>
      <trkpt lat="48.71143" lon="2.46827">
        <ele>32</ele>
        <time>2021-11-02T10:18:45+01:00</time>
      </trkpt>
      <trkpt lat="48.7112" lon="2.46781">
        <ele>33</ele>
        <time>2021-11-02T10:18:50+01:00</time>
      </trkpt>
      <trkpt lat="48.71109" lon="2.467">
        <ele>33</ele>
        <time>2021-11-02T10:18:55+01:00</time>
      </trkpt>
      <trkpt lat="48.71101" lon="2.46586">
        <ele>33</ele>
        <time>2021-11-02T10:19:00+01:00</time>
      </trkpt>
      <trkpt lat="48.71095" lon="2.46461">
        <ele>33.6</ele>
        <time>2021-11-02T10:19:05+01:00</time>
      </trkpt>
      <trkpt lat="48.71072" lon="2.4646">
        <ele>33.6</ele>
        <time>2021-11-02T10:19:10+01:00</time>
      </trkpt>
      <trkpt lat="48.71063" lon="2.46389">
        <ele>35</ele>
        <time>2021-11-02T10:19:15+01:00</time>
      </trkpt>
      <trkpt lat="48.71067" lon="2.46317">
        <ele>34</ele>
        <time>2021-11-02T10:19:20+01:00</time>
      </trkpt>
      <trkpt lat="48.71085" lon="2.46196">
        <ele>34</ele>
        <time>2021-11-02T10:19:25+01:00</time>
      </trkpt>
      <trkpt lat="48.71125" lon="2.46039">
        <ele>34</ele>
        <time>2021-11-02T10:19:30+01:00</time>
      </trkpt>
      <trkpt lat="48.71133" lon="2.45977">
        <ele>33</ele>
        <time>2021-11-02T10:19:35+01:00</time>
      </trkpt>
      <trkpt lat="48.71161" lon="2.45858">
        <ele>33.3</ele>
        <time>2021-11-02T10:19:40+01:00</time>
      </trkpt>
      <trkpt lat="48.71098" lon="2.45781">
        <ele>34.9</ele>
        <time>2021-11-02T10:19:45+01:00</time>
      </trkpt>
      <trkpt lat="48.71121" lon="2.45759">
        <ele>39</ele>
        <time>2021-11-02T10:19:50+01:00</time>
      </trkpt>
      <trkpt lat="48.71172" lon="2.45763">
        <ele>37</ele>
        <time>2021-11-02T10:19:55+01:00</time>
      </trkpt>
      <trkpt lat="48.71226" lon="2.45768">
        <ele>34.4</ele>
        <time>2021-11-02T10:20:00+01:00</time>
      </trkpt>
      <trkpt lat="48.7126" lon="2.45741">
        <ele>35</ele>
        <time>2021-11-02T10:20:05+01:00</time>
      </trkpt>
      <trkpt lat="48.71286" lon="2.45695">
        <ele>35</ele>
        <time>2021-11-02T10:20:10+01:00</time>
      </trkpt>
      <trkpt lat="48.71288" lon="2.45677">
        <ele>34</ele>
      </trkpt>
      <trkpt lat="48.71302" lon="2.45651">
        <ele>35</ele>
        <time>2021-11-02T10:20:15+01:00</time>
      </trkpt>
      <trkpt lat="48.71332" lon="2.45643">
        <ele>34</ele>
        <time>2021-11-02T10:20:20+01:00</time>
      </trkpt>
      <trkpt lat="48.71367" lon="2.45604">
        <ele>35</ele>
        <time>2021-11-02T10:20:25+01:00</time>
      </trkpt>
      <trkpt lat="48.71399" lon="2.45546">
        <ele>37</ele>
        <time>2021-11-02T10:20:30+01:00</time>
      </trkpt>
      <trkpt lat="48.71443" lon="2.45483">
        <ele>35</ele>
        <time>2021-11-02T10:20:35+01:00</time>
      </trkpt>
      <trkpt lat="48.71469" lon="2.45459">
        <ele>32.5</ele>
      </trkpt>
      <trkpt lat="48.71481" lon="2.45404">
        <ele>32.9</ele>
        <time>2021-11-02T10:20:40+01:00</time>
      </trkpt>
      <trkpt lat="48.71505" lon="2.45327">
        <ele>33</ele>
        <time>2021-11-02T10:20:45+01:00</time>
      </trkpt>
      <trkpt lat="48.71521" lon="2.45258">
        <ele>32.3</ele>
        <time>2021-11-02T10:20:50+01:00</time>
      </trkpt>
      <trkpt lat="48.71516" lon="2.45179">
        <ele>32.4</ele>
      </trkpt>
      <trkpt lat="48.71516" lon="2.45131">
        <ele>32.7</ele>
      </trkpt>
      <trkpt lat="48.71508" lon="2.45113">
        <ele>32.8</ele>
        <time>2021-11-02T10:20:55+01:00</time>
      </trkpt>
      <trkpt lat="48.71496" lon="2.45088">
        <ele>35</ele>
        <time>2021-11-02T10:21:00+01:00</time>
      </trkpt>
      <trkpt lat="48.71519" lon="2.4508">
        <ele>35</ele>
        <time>2021-11-02T10:21:05+01:00</time>
      </trkpt>
      <trkpt lat="48.71547" lon="2.45065">
        <ele>34</ele>
        <time>2021-11-02T10:21:10+01:00</time>
      </trkpt>
      <trkpt lat="48.71565" lon="2.4508">
        <ele>33</ele>
        <time>2021-11-02T10:21:15+01:00</time>
      </trkpt>
      <trkpt lat="48.71592" lon="2.45108">
        <ele>34</ele>
        <time>2021-11-02T10:21:20+01:00</time>
      </trkpt>
      <trkpt lat="48.71651" lon="2.45141">
        <ele>35</ele>
        <time>2021-11-02T10:21:25+01:00</time>
      </trkpt>
      <trkpt lat="48.71695" lon="2.45163">
        <ele>35</ele>
        <time>2021-11-02T10:21:30+01:00</time>
      </trkpt>
      <trkpt lat="48.71724" lon="2.45195">
        <ele>34</ele>
        <time>2021-11-02T10:21:35+01:00</time>
      </trkpt>
      <trkpt lat="48.7175" lon="2.45278">
        <ele>34</ele>
        <time>2021-11-02T10:21:40+01:00</time>
      </trkpt>
      <trkpt lat="48.71775" lon="2.45264">
        <ele>33</ele>
        <time>2021-11-02T10:21:45+01:00</time>
      </trkpt>
      <trkpt lat="48.71758" lon="2.45222">
        <ele>33</ele>
        <time>2021-11-02T10:21:50+01:00</time>
      </trkpt>
      <trkpt lat="48.71824" lon="2.45129">
        <ele>32</ele>
        <time>2021-11-02T10:21:55+01:00</time>
      </trkpt>
      <trkpt lat="48.71866" lon="2.45061">
        <ele>33</ele>
        <time>2021-11-02T10:22:00+01:00</time>
      </trkpt>
      <trkpt lat="48.71883" lon="2.45031">
        <ele>33</ele>
        <time>2021-11-02T10:22:05+01:00</time>
      </trkpt>
      <trkpt lat="48.71922" lon="2.45033">
        <ele>33</ele>
        <time>2021-11-02T10:22:10+01:00</time>
      </trkpt>
      <trkpt lat="48.71968" lon="2.45024">
        <ele>34</ele>
        <time>2021-11-02T10:22:15+01:00</time>
      </trkpt>
      <trkpt lat="48.72023" lon="2.45134">
        <ele>36</ele>
        <time>2021-11-02T10:22:20+01:00</time>
      </trkpt>
      <trkpt lat="48.7204" lon="2.45169">
        <ele>37</ele>
        <time>2021-11-02T10:22:25+01:00</time>
      </trkpt>
      <trkpt lat="48.72068" lon="2.45176">
        <ele>38</ele>
        <time>2021-11-02T10:22:30+01:00</time>
      </trkpt>
      <trkpt lat="48.7208" lon="2.4522">
        <ele>39</ele>
        <time>2021-11-02T10:22:35+01:00</time>
      </trkpt>
      <trkpt lat="48.72072" lon="2.45244">
        <ele>39</ele>
        <time>2021-11-02T10:22:40+01:00</time>
      </trkpt>
      <trkpt lat="48.72056" lon="2.45326">
        <ele>40</ele>
        <time>2021-11-02T10:22:45+01:00</time>
      </trkpt>
      <trkpt lat="48.7205" lon="2.45415">
        <ele>42</ele>
        <time>2021-11-02T10:22:50+01:00</time>
      </trkpt>
      <trkpt lat="48.72077" lon="2.45439">
        <ele>45</ele>
        <time>2021-11-02T10:22:55+01:00</time>
      </trkpt>
      <trkpt lat="48.72115" lon="2.45456">
        <ele>51</ele>
        <time>2021-11-02T10:23:00+01:00</time>
      </trkpt>
      <trkpt lat="48.7211" lon="2.45518">
        <ele>52</ele>
        <time>2021-11-02T10:23:05+01:00</time>
      </trkpt>
      <trkpt lat="48.72099" lon="2.45559">
        <ele>51</ele>
        <time>2021-11-02T10:23:10+01:00</time>
      </trkpt>
      <trkpt lat="48.72086" lon="2.45604">
        <ele>49</ele>
        <time>2021-11-02T10:23:15+01:00</time>
      </trkpt>
      <trkpt lat="48.72116" lon="2.45628">
        <ele>54</ele>
        <time>2021-11-02T10:23:20+01:00</time>
      </trkpt>
      <trkpt lat="48.7212" lon="2.45611">
        <ele>52.2</ele>
      </trkpt>
      <trkpt lat="48.72127" lon="2.45608">
        <ele>53.9</ele>
      </trkpt>
      <trkpt lat="48.72147" lon="2.45639">
        <ele>58</ele>
        <time>2021-11-02T10:23:25+01:00</time>
      </trkpt>
      <trkpt lat="48.72173" lon="2.45654">
        <ele>62</ele>
        <time>2021-11-02T10:23:30+01:00</time>
      </trkpt>
      <trkpt lat="48.72203" lon="2.45665">
        <ele>67</ele>
        <time>2021-11-02T10:23:35+01:00</time>
      </trkpt>
      <trkpt lat="48.72209" lon="2.45627">
        <ele>68.7</ele>
        <time>2021-11-02T10:23:40+01:00</time>
      </trkpt>
      <trkpt lat="48.72258" lon="2.45635">
        <ele>76.6</ele>
        <time>2021-11-02T10:23:45+01:00</time>
      </trkpt>
      <trkpt lat="48.7229" lon="2.45655">
        <ele>79.1</ele>
        <time>2021-11-02T10:23:50+01:00</time>
      </trkpt>
      <trkpt lat="48.72262" lon="2.45715">
        <ele>76</ele>
        <time>2021-11-02T10:23:55+01:00</time>
      </trkpt>
      <trkpt lat="48.72247" lon="2.45772">
        <ele>74</ele>
        <time>2021-11-02T10:24:00+01:00</time>
      </trkpt>
      <trkpt lat="48.72271" lon="2.45781">
        <ele>77.2</ele>
        <time>2021-11-02T10:24:05+01:00</time>
      </trkpt>
      <trkpt lat="48.72307" lon="2.45798">
        <ele>80.4</ele>
        <time>2021-11-02T10:24:10+01:00</time>
      </trkpt>
      <trkpt lat="48.72321" lon="2.45813">
        <ele>81.7</ele>
        <time>2021-11-02T10:24:15+01:00</time>
      </trkpt>
      <trkpt lat="48.72342" lon="2.45821">
        <ele>83.6</ele>
        <time>2021-11-02T10:24:20+01:00</time>
      </trkpt>
      <trkpt lat="48.72372" lon="2.45827">
        <ele>85.7</ele>
        <time>2021-11-02T10:24:25+01:00</time>
      </trkpt>
      <trkpt lat="48.72383" lon="2.45889">
        <ele>87.3</ele>
      </trkpt>
      <trkpt lat="48.72391" lon="2.45887">
        <ele>87.9</ele>
        <time>2021-11-02T10:24:30+01:00</time>
      </trkpt>
      <trkpt lat="48.72389" lon="2.46031">
        <ele>89</ele>
        <time>2021-11-02T10:24:35+01:00</time>
      </trkpt>
      <trkpt lat="48.72472" lon="2.46077">
        <ele>90</ele>
        <time>2021-11-02T10:24:40+01:00</time>
      </trkpt>
      <trkpt lat="48.7251" lon="2.46098">
        <ele>90</ele>
      </trkpt>
      <trkpt lat="48.72544" lon="2.46026">
        <ele>90</ele>
        <time>2021-11-02T10:24:45+01:00</time>
      </trkpt>
      <trkpt lat="48.72585" lon="2.45979">
        <ele>90.7</ele>
      </trkpt>
      <trkpt lat="48.7258" lon="2.45931">
        <ele>90</ele>
        <time>2021-11-02T10:24:50+01:00</time>
      </trkpt>
      <trkpt lat="48.72662" lon="2.45945">
        <ele>91</ele>
        <time>2021-11-02T10:24:55+01:00</time>
      </trkpt>
      <trkpt lat="48.72773" lon="2.45951">
        <ele>89.1</ele>
        <time>2021-11-02T10:25:00+01:00</time>
      </trkpt>
      <trkpt lat="48.72721" lon="2.46088">
        <ele>87</ele>
        <time>2021-11-02T10:25:05+01:00</time>
      </trkpt>
      <trkpt lat="48.72688" lon="2.46149">
        <ele>87</ele>
        <time>2021-11-02T10:25:10+01:00</time>
      </trkpt>
      <trkpt lat="48.72816" lon="2.46271">
        <ele>88</ele>
        <time>2021-11-02T10:25:15+01:00</time>
      </trkpt>
      <trkpt lat="48.72799" lon="2.46322">
        <ele>89</ele>
        <time>2021-11-02T10:25:20+01:00</time>
      </trkpt>
      <trkpt lat="48.72744" lon="2.4633">
        <ele>88.7</ele>
        <time>2021-11-02T10:25:25+01:00</time>
      </trkpt>
      <trkpt lat="48.7272" lon="2.46302">
        <ele>87</ele>
        <time>2021-11-02T10:25:30+01:00</time>
      </trkpt>
      <trkpt lat="48.72639" lon="2.46232">
        <ele>87</ele>
        <time>2021-11-02T10:25:35+01:00</time>
      </trkpt>
      <trkpt lat="48.72619" lon="2.46269">
        <ele>87</ele>
        <time>2021-11-02T10:25:40+01:00</time>
      </trkpt>
      <trkpt lat="48.72636" lon="2.4655">
        <ele>88.1</ele>
        <time>2021-11-02T10:25:45+01:00</time>
      </trkpt>
      <trkpt lat="48.72656" lon="2.46783">
        <ele>88</ele>
        <time>2021-11-02T10:25:50+01:00</time>
      </trkpt>
      <trkpt lat="48.72676" lon="2.46924">
        <ele>88</ele>
        <time>2021-11-02T10:25:55+01:00</time>
      </trkpt>
      <trkpt lat="48.72707" lon="2.47045">
        <ele>85</ele>
        <time>2021-11-02T10:26:00+01:00</time>
      </trkpt>
      <trkpt lat="48.72753" lon="2.47155">
        <ele>85</ele>
        <time>2021-11-02T10:26:05+01:00</time>
      </trkpt>
      <trkpt lat="48.72752" lon="2.47276">
        <ele>86.1</ele>
        <time>2021-11-02T10:26:10+01:00</time>
      </trkpt>
      <trkpt lat="48.72762" lon="2.47287">
        <ele>86</ele>
        <time>2021-11-02T10:26:15+01:00</time>
      </trkpt>
      <trkpt lat="48.72777" lon="2.4776">
        <ele>86</ele>
        <time>2021-11-02T10:26:20+01:00</time>
      </trkpt>
      <trkpt lat="48.72801" lon="2.4802">
        <ele>87</ele>
        <time>2021-11-02T10:26:25+01:00</time>
      </trkpt>
      <trkpt lat="48.72924" lon="2.48471">
        <ele>89</ele>
        <time>2021-11-02T10:26:30+01:00</time>
      </trkpt>
      <trkpt lat="48.7287" lon="2.48494">
        <ele>89</ele>
        <time>2021-11-02T10:26:35+01:00</time>
      </trkpt>
      <trkpt lat="48.72958" lon="2.48901">
        <ele>96</ele>
        <time>2021-11-02T10:26:40+01:00</time>
      </trkpt>
      <trkpt lat="48.72578" lon="2.49121">
        <ele>88</ele>
        <time>2021-11-02T10:26:45+01:00</time>
      </trkpt>
      <trkpt lat="48.72586" lon="2.49176">
        <ele>88</ele>
        <time>2021-11-02T10:26:50+01:00</time>
      </trkpt>
      <trkpt lat="48.72461" lon="2.49035">
        <ele>95</ele>
        <time>2021-11-02T10:26:55+01:00</time>
      </trkpt>
      <trkpt lat="48.72439" lon="2.49065">
        <ele>95</ele>
        <time>2021-11-02T10:27:00+01:00</time>
      </trkpt>
      <trkpt lat="48.72359" lon="2.49067">
        <ele>96</ele>
        <time>2021-11-02T10:27:05+01:00</time>
      </trkpt>
      <trkpt lat="48.72327" lon="2.49163">
        <ele>96</ele>
        <time>2021-11-02T10:27:10+01:00</time>
      </trkpt>
      <trkpt lat="48.72416" lon="2.49182">
        <ele>95</ele>
        <time>2021-11-02T10:27:15+01:00</time>
      </trkpt>
      <trkpt lat="48.72466" lon="2.4922">
        <ele>94</ele>
        <time>2021-11-02T10:27:20+01:00</time>
      </trkpt>
      <trkpt lat="48.72455" lon="2.4926">
        <ele>93</ele>
        <time>2021-11-02T10:27:25+01:00</time>
      </trkpt>
      <trkpt lat="48.72422" lon="2.49264">
        <ele>93</ele>
        <time>2021-11-02T10:27:30+01:00</time>
      </trkpt>
      <trkpt lat="48.72412" lon="2.4932">
        <ele>92</ele>
        <time>2021-11-02T10:27:35+01:00</time>
      </trkpt>
      <trkpt lat="48.72465" lon="2.49382">
        <ele>90</ele>
        <time>2021-11-02T10:27:40+01:00</time>
      </trkpt>
      <trkpt lat="48.72434" lon="2.49414">
        <ele>89</ele>
        <time>2021-11-02T10:27:45+01:00</time>
      </trkpt>
      <trkpt lat="48.72407" lon="2.49396">
        <ele>90</ele>
        <time>2021-11-02T10:27:50+01:00</time>
      </trkpt>
      <trkpt lat="48.72377" lon="2.49432">
        <ele>90</ele>
        <time>2021-11-02T10:27:55+01:00</time>
      </trkpt>
      <trkpt lat="48.72332" lon="2.49412">
        <ele>91</ele>
        <time>2021-11-02T10:28:00+01:00</time>
      </trkpt>
      <trkpt lat="48.7231" lon="2.49429">
        <ele>91</ele>
        <time>2021-11-02T10:28:05+01:00</time>
      </trkpt>
      <trkpt lat="48.72304" lon="2.49457">
        <ele>91</ele>
        <time>2021-11-02T10:28:10+01:00</time>
      </trkpt>
      <trkpt lat="48.72304" lon="2.49512">
        <ele>89</ele>
        <time>2021-11-02T10:28:15+01:00</time>
      </trkpt>
      <trkpt lat="48.72275" lon="2.49579">
        <ele>88</ele>
        <time>2021-11-02T10:28:20+01:00</time>
      </trkpt>
      <trkpt lat="48.72292" lon="2.49637">
        <ele>88</ele>
        <time>2021-11-02T10:28:25+01:00</time>
      </trkpt>
      <trkpt lat="48.7226" lon="2.49661">
        <ele>87</ele>
        <time>2021-11-02T10:28:30+01:00</time>
      </trkpt>
      <trkpt lat="48.72258" lon="2.49813">
        <ele>90</ele>
        <time>2021-11-02T10:28:35+01:00</time>
      </trkpt>
      <trkpt lat="48.72316" lon="2.49966">
        <ele>94</ele>
        <time>2021-11-02T10:28:40+01:00</time>
      </trkpt>
    </trkseg>
  </trk>
</gpx>